Startpagina
METAR-TAF:

METAR-TAF

Vliegvelden :

Bütgenbach, België

Elsenborn

breedte: 50-28N, lengte: 006-11E, hoogte: 564 m

Actueel weer

Dit bericht is 16 minuten geleden gemaakt, om 10:55 UTC
Wind 10 kt uit het oostzuidoosten
Temperatuur 21°C
Vochtigheid 38%
Druk 1022 hPa
Zicht 10 km of meer

METAR: EBLB 261055Z AUTO 11010KT 9999 NCD 21/06 Q1022 BLU

Tijdstip: 13:11 (11:11 UTC)


TAF: ontbreekt

Waarnemingen en weersverwachtingen van meer dan 4000 vliegvelden (METAR en TAF).

De beschikbare stations zijn de gele en rode punten op de kaart.

Ga met uw muis naar het station om de naam te zien.

Klik dan om waarnemingen en weersverwachtingen te zien.

kaart wijzigen: klik op de groene knoppen met een zwart kruis om in te zoomen, op de groene knop met een streepje om uit te zoomen of op de groene pijlen voor aangrenzende kaarten.


METAR-TAF: